sensor_id;sensor_type;location;lat;lon;timestamp;P1;durP1;ratioP1;P2;durP2;ratioP2
21099;SDS011;10708;50.824;4.408;2022-08-04T00:01:02;11.25;;;2.78;;
21099;SDS011;10708;50.824;4.408;2022-08-04T00:06:09;8.82;;;2.53;;
21099;SDS011;10708;50.824;4.408;2022-08-04T00:11:19;7.32;;;2.65;;
21099;SDS011;10708;50.824;4.408;2022-08-04T00:16:23;8.23;;;2.70;;
21099;SDS011;10708;50.824;4.408;2022-08-04T00:21:30;5.75;;;2.40;;
21099;SDS011;10708;50.824;4.408;2022-08-04T00:26:38;7.35;;;2.25;;
21099;SDS011;10708;50.824;4.408;2022-08-04T00:31:40;6.80;;;2.75;;
21099;SDS011;10708;50.824;4.408;2022-08-04T00:36:43;8.15;;;2.50;;
21099;SDS011;10708;50.824;4.408;2022-08-04T00:41:50;10.25;;;3.28;;
21099;SDS011;10708;50.824;4.408;2022-08-04T00:47:06;5.80;;;2.60;;
21099;SDS011;10708;50.824;4.408;2022-08-04T00:52:27;7.10;;;2.70;;
21099;SDS011;10708;50.824;4.408;2022-08-04T00:57:49;5.72;;;3.40;;
21099;SDS011;10708;50.824;4.408;2022-08-04T01:03:04;7.10;;;3.08;;
21099;SDS011;10708;50.824;4.408;2022-08-04T01:08:19;5.15;;;2.70;;
21099;SDS011;10708;50.824;4.408;2022-08-04T01:13:51;5.57;;;3.15;;
21099;SDS011;10708;50.824;4.408;2022-08-04T01:19:01;5.88;;;2.72;;
21099;SDS011;10708;50.824;4.408;2022-08-04T01:24:28;6.55;;;3.47;;
21099;SDS011;10708;50.824;4.408;2022-08-04T01:29:39;8.82;;;3.42;;
21099;SDS011;10708;50.824;4.408;2022-08-04T01:34:49;8.00;;;3.28;;
21099;SDS011;10708;50.824;4.408;2022-08-04T01:39:58;7.22;;;3.30;;
21099;SDS011;10708;50.824;4.408;2022-08-04T01:45:05;8.55;;;4.22;;
21099;SDS011;10708;50.824;4.408;2022-08-04T01:50:10;9.25;;;3.67;;
21099;SDS011;10708;50.824;4.408;2022-08-04T01:55:14;13.30;;;3.47;;
21099;SDS011;10708;50.824;4.408;2022-08-04T02:00:19;6.72;;;3.63;;
21099;SDS011;10708;50.824;4.408;2022-08-04T02:05:24;9.43;;;3.40;;
21099;SDS011;10708;50.824;4.408;2022-08-04T02:10:29;5.60;;;3.45;;
21099;SDS011;10708;50.824;4.408;2022-08-04T02:15:40;7.10;;;3.47;;
21099;SDS011;10708;50.824;4.408;2022-08-04T02:20:48;9.82;;;3.90;;
21099;SDS011;10708;50.824;4.408;2022-08-04T02:25:59;9.15;;;4.28;;
21099;SDS011;10708;50.824;4.408;2022-08-04T02:31:10;6.95;;;4.00;;
21099;SDS011;10708;50.824;4.408;2022-08-04T02:36:18;11.00;;;4.20;;
21099;SDS011;10708;50.824;4.408;2022-08-04T02:41:24;9.70;;;4.05;;
21099;SDS011;10708;50.824;4.408;2022-08-04T02:46:30;12.63;;;4.45;;
21099;SDS011;10708;50.824;4.408;2022-08-04T02:51:33;10.30;;;4.25;;
21099;SDS011;10708;50.824;4.408;2022-08-04T02:56:36;9.15;;;4.30;;
21099;SDS011;10708;50.824;4.408;2022-08-04T03:01:41;8.52;;;3.60;;
21099;SDS011;10708;50.824;4.408;2022-08-04T03:06:57;7.00;;;3.83;;
21099;SDS011;10708;50.824;4.408;2022-08-04T03:18:04;9.05;;;4.32;;
21099;SDS011;10708;50.824;4.408;2022-08-04T03:34:56;11.93;;;5.43;;
21099;SDS011;10708;50.824;4.408;2022-08-04T03:51:28;13.00;;;4.93;;
21099;SDS011;10708;50.824;4.408;2022-08-04T03:57:09;13.00;;;4.28;;
21099;SDS011;10708;50.824;4.408;2022-08-04T04:02:44;10.52;;;4.35;;
21099;SDS011;10708;50.824;4.408;2022-08-04T04:08:16;7.32;;;4.15;;
21099;SDS011;10708;50.824;4.408;2022-08-04T04:13:37;9.73;;;4.40;;
21099;SDS011;10708;50.824;4.408;2022-08-04T04:19:07;7.75;;;3.88;;
21099;SDS011;10708;50.824;4.408;2022-08-04T04:24:39;8.93;;;3.40;;
21099;SDS011;10708;50.824;4.408;2022-08-04T04:30:05;7.00;;;3.35;;
21099;SDS011;10708;50.824;4.408;2022-08-04T04:35:09;6.55;;;2.75;;
21099;SDS011;10708;50.824;4.408;2022-08-04T04:40:27;5.10;;;2.80;;
21099;SDS011;10708;50.824;4.408;2022-08-04T04:45:40;6.55;;;2.75;;
21099;SDS011;10708;50.824;4.408;2022-08-04T04:50:52;7.20;;;2.67;;
21099;SDS011;10708;50.824;4.408;2022-08-04T04:56:05;7.40;;;2.97;;
21099;SDS011;10708;50.824;4.408;2022-08-04T05:01:29;9.95;;;3.90;;
21099;SDS011;10708;50.824;4.408;2022-08-04T05:06:50;9.43;;;3.05;;
21099;SDS011;10708;50.824;4.408;2022-08-04T05:12:08;9.52;;;2.97;;
21099;SDS011;10708;50.824;4.408;2022-08-04T05:17:25;6.07;;;2.83;;
21099;SDS011;10708;50.824;4.408;2022-08-04T05:22:31;6.90;;;2.88;;
21099;SDS011;10708;50.824;4.408;2022-08-04T05:27:40;8.98;;;2.80;;
21099;SDS011;10708;50.824;4.408;2022-08-04T05:32:49;10.73;;;3.35;;
21099;SDS011;10708;50.824;4.408;2022-08-04T05:37:56;6.55;;;3.40;;
21099;SDS011;10708;50.824;4.408;2022-08-04T05:43:04;8.07;;;3.50;;
21099;SDS011;10708;50.824;4.408;2022-08-04T05:48:07;9.18;;;3.40;;
21099;SDS011;10708;50.824;4.408;2022-08-04T05:53:10;9.13;;;3.53;;
21099;SDS011;10708;50.824;4.408;2022-08-04T05:58:17;9.73;;;2.95;;
21099;SDS011;10708;50.824;4.408;2022-08-04T06:03:21;9.75;;;3.20;;
21099;SDS011;10708;50.824;4.408;2022-08-04T06:08:24;7.85;;;3.08;;
21099;SDS011;10708;50.824;4.408;2022-08-04T06:13:29;7.28;;;3.05;;
21099;SDS011;10708;50.824;4.408;2022-08-04T06:18:38;9.07;;;3.20;;
21099;SDS011;10708;50.824;4.408;2022-08-04T06:23:41;7.25;;;3.15;;
21099;SDS011;10708;50.824;4.408;2022-08-04T06:28:48;8.48;;;2.90;;
21099;SDS011;10708;50.824;4.408;2022-08-04T06:33:53;9.75;;;3.10;;
21099;SDS011;10708;50.824;4.408;2022-08-04T06:38:55;9.25;;;3.25;;
21099;SDS011;10708;50.824;4.408;2022-08-04T06:44:01;9.20;;;3.08;;
21099;SDS011;10708;50.824;4.408;2022-08-04T06:49:09;9.63;;;2.90;;
21099;SDS011;10708;50.824;4.408;2022-08-04T06:54:12;8.88;;;3.03;;
21099;SDS011;10708;50.824;4.408;2022-08-04T06:59:16;9.15;;;3.65;;
21099;SDS011;10708;50.824;4.408;2022-08-04T07:04:19;9.98;;;3.75;;
21099;SDS011;10708;50.824;4.408;2022-08-04T07:09:22;11.10;;;2.88;;
21099;SDS011;10708;50.824;4.408;2022-08-04T07:14:26;11.63;;;2.67;;
21099;SDS011;10708;50.824;4.408;2022-08-04T07:19:29;7.53;;;2.50;;
21099;SDS011;10708;50.824;4.408;2022-08-04T07:24:33;9.80;;;2.92;;
21099;SDS011;10708;50.824;4.408;2022-08-04T07:29:38;12.10;;;2.70;;
21099;SDS011;10708;50.824;4.408;2022-08-04T07:34:41;9.07;;;3.15;;
21099;SDS011;10708;50.824;4.408;2022-08-04T07:39:44;9.40;;;3.90;;
21099;SDS011;10708;50.824;4.408;2022-08-04T07:44:48;10.70;;;3.42;;
21099;SDS011;10708;50.824;4.408;2022-08-04T07:49:51;11.57;;;3.70;;
21099;SDS011;10708;50.824;4.408;2022-08-04T07:54:53;9.52;;;3.80;;
21099;SDS011;10708;50.824;4.408;2022-08-04T07:59:58;9.18;;;3.67;;
21099;SDS011;10708;50.824;4.408;2022-08-04T08:05:00;10.52;;;3.67;;
21099;SDS011;10708;50.824;4.408;2022-08-04T08:10:03;9.50;;;4.03;;
21099;SDS011;10708;50.824;4.408;2022-08-04T08:15:07;10.98;;;4.65;;
21099;SDS011;10708;50.824;4.408;2022-08-04T08:20:12;9.05;;;3.80;;
21099;SDS011;10708;50.824;4.408;2022-08-04T08:25:14;12.38;;;3.97;;
21099;SDS011;10708;50.824;4.408;2022-08-04T08:30:17;9.57;;;3.97;;
21099;SDS011;10708;50.824;4.408;2022-08-04T08:35:20;10.45;;;4.60;;
21099;SDS011;10708;50.824;4.408;2022-08-04T08:40:28;11.40;;;4.28;;
21099;SDS011;10708;50.824;4.408;2022-08-04T08:56:48;13.02;;;4.40;;
21099;SDS011;10708;50.824;4.408;2022-08-04T09:02:11;14.52;;;5.05;;
21099;SDS011;10708;50.824;4.408;2022-08-04T09:07:36;9.75;;;4.75;;
21099;SDS011;10708;50.824;4.408;2022-08-04T09:12:50;12.15;;;4.60;;
21099;SDS011;10708;50.824;4.408;2022-08-04T09:18:00;11.85;;;5.25;;
21099;SDS011;10708;50.824;4.408;2022-08-04T09:23:07;13.73;;;5.80;;
21099;SDS011;10708;50.824;4.408;2022-08-04T09:28:22;15.43;;;5.85;;
21099;SDS011;10708;50.824;4.408;2022-08-04T09:33:38;14.15;;;6.60;;
21099;SDS011;10708;50.824;4.408;2022-08-04T09:38:48;16.15;;;6.70;;
21099;SDS011;10708;50.824;4.408;2022-08-04T09:44:06;15.25;;;7.13;;
21099;SDS011;10708;50.824;4.408;2022-08-04T09:49:19;21.52;;;9.15;;
21099;SDS011;10708;50.824;4.408;2022-08-04T09:54:32;20.88;;;9.48;;
21099;SDS011;10708;50.824;4.408;2022-08-04T09:59:52;19.98;;;9.75;;
21099;SDS011;10708;50.824;4.408;2022-08-04T10:05:04;28.05;;;11.45;;
21099;SDS011;10708;50.824;4.408;2022-08-04T10:10:18;23.25;;;10.77;;
21099;SDS011;10708;50.824;4.408;2022-08-04T10:15:27;24.50;;;12.50;;
21099;SDS011;10708;50.824;4.408;2022-08-04T10:26:01;24.75;;;12.93;;
21099;SDS011;10708;50.824;4.408;2022-08-04T10:31:08;26.80;;;12.07;;
21099;SDS011;10708;50.824;4.408;2022-08-04T10:36:15;29.80;;;14.40;;
21099;SDS011;10708;50.824;4.408;2022-08-04T10:41:24;27.40;;;13.20;;
21099;SDS011;10708;50.824;4.408;2022-08-04T10:46:31;25.63;;;14.93;;
21099;SDS011;10708;50.824;4.408;2022-08-04T10:51:39;28.90;;;16.25;;
21099;SDS011;10708;50.824;4.408;2022-08-04T10:56:48;26.17;;;14.57;;
21099;SDS011;10708;50.824;4.408;2022-08-04T11:01:54;21.45;;;12.80;;
21099;SDS011;10708;50.824;4.408;2022-08-04T11:07:09;18.08;;;11.55;;
21099;SDS011;10708;50.824;4.408;2022-08-04T11:12:13;16.48;;;10.35;;
21099;SDS011;10708;50.824;4.408;2022-08-04T11:17:20;21.27;;;11.55;;
21099;SDS011;10708;50.824;4.408;2022-08-04T11:22:28;26.90;;;14.13;;
21099;SDS011;10708;50.824;4.408;2022-08-04T11:27:34;21.13;;;12.48;;
21099;SDS011;10708;50.824;4.408;2022-08-04T11:32:42;20.95;;;13.13;;
21099;SDS011;10708;50.824;4.408;2022-08-04T11:37:50;19.50;;;12.80;;
21099;SDS011;10708;50.824;4.408;2022-08-04T11:43:03;17.98;;;10.93;;
21099;SDS011;10708;50.824;4.408;2022-08-04T11:48:12;17.75;;;11.30;;
21099;SDS011;10708;50.824;4.408;2022-08-04T11:53:21;19.02;;;12.18;;
21099;SDS011;10708;50.824;4.408;2022-08-04T11:58:24;21.95;;;12.10;;
21099;SDS011;10708;50.824;4.408;2022-08-04T12:03:31;24.98;;;11.73;;
21099;SDS011;10708;50.824;4.408;2022-08-04T12:08:46;17.42;;;10.65;;
21099;SDS011;10708;50.824;4.408;2022-08-04T12:13:58;13.98;;;8.95;;
21099;SDS011;10708;50.824;4.408;2022-08-04T12:19:12;16.88;;;9.32;;
21099;SDS011;10708;50.824;4.408;2022-08-04T12:24:25;16.02;;;8.57;;
21099;SDS011;10708;50.824;4.408;2022-08-04T12:29:32;14.55;;;9.18;;
21099;SDS011;10708;50.824;4.408;2022-08-04T12:34:39;10.63;;;7.93;;
21099;SDS011;10708;50.824;4.408;2022-08-04T12:39:46;10.00;;;6.10;;
21099;SDS011;10708;50.824;4.408;2022-08-04T12:44:52;10.60;;;6.35;;
21099;SDS011;10708;50.824;4.408;2022-08-04T12:49:56;9.35;;;6.60;;
21099;SDS011;10708;50.824;4.408;2022-08-04T12:55:04;10.93;;;5.82;;
21099;SDS011;10708;50.824;4.408;2022-08-04T13:00:07;13.90;;;6.78;;
21099;SDS011;10708;50.824;4.408;2022-08-04T13:05:11;10.40;;;7.60;;
21099;SDS011;10708;50.824;4.408;2022-08-04T13:10:18;16.05;;;7.15;;
21099;SDS011;10708;50.824;4.408;2022-08-04T13:15:23;11.43;;;6.20;;
21099;SDS011;10708;50.824;4.408;2022-08-04T13:20:28;9.48;;;5.35;;
21099;SDS011;10708;50.824;4.408;2022-08-04T13:25:34;8.82;;;6.07;;
21099;SDS011;10708;50.824;4.408;2022-08-04T13:30:39;10.10;;;5.63;;
21099;SDS011;10708;50.824;4.408;2022-08-04T13:35:49;13.40;;;5.43;;
21099;SDS011;10708;50.824;4.408;2022-08-04T13:40:53;7.57;;;4.43;;
21099;SDS011;10708;50.824;4.408;2022-08-04T13:45:58;8.18;;;5.00;;
21099;SDS011;10708;50.824;4.408;2022-08-04T13:51:02;7.63;;;4.00;;
21099;SDS011;10708;50.824;4.408;2022-08-04T13:56:08;5.07;;;3.75;;
21099;SDS011;10708;50.824;4.408;2022-08-04T14:01:15;8.85;;;3.97;;
21099;SDS011;10708;50.824;4.408;2022-08-04T14:06:23;6.38;;;3.55;;
21099;SDS011;10708;50.824;4.408;2022-08-04T14:11:33;5.38;;;4.00;;
21099;SDS011;10708;50.824;4.408;2022-08-04T14:16:37;10.80;;;4.60;;
21099;SDS011;10708;50.824;4.408;2022-08-04T14:21:39;4.13;;;3.72;;
21099;SDS011;10708;50.824;4.408;2022-08-04T14:26:42;5.03;;;3.35;;
21099;SDS011;10708;50.824;4.408;2022-08-04T14:31:46;7.82;;;4.40;;
21099;SDS011;10708;50.824;4.408;2022-08-04T14:36:49;10.27;;;5.00;;
21099;SDS011;10708;50.824;4.408;2022-08-04T14:41:52;5.90;;;4.93;;
21099;SDS011;10708;50.824;4.408;2022-08-04T14:46:55;6.90;;;3.95;;
21099;SDS011;10708;50.824;4.408;2022-08-04T14:51:59;5.65;;;4.97;;
21099;SDS011;10708;50.824;4.408;2022-08-04T14:57:04;8.43;;;4.50;;
21099;SDS011;10708;50.824;4.408;2022-08-04T15:02:08;7.20;;;4.78;;
21099;SDS011;10708;50.824;4.408;2022-08-04T15:07:11;11.80;;;5.10;;
21099;SDS011;10708;50.824;4.408;2022-08-04T15:12:16;6.97;;;4.82;;
21099;SDS011;10708;50.824;4.408;2022-08-04T15:17:18;7.63;;;4.50;;
21099;SDS011;10708;50.824;4.408;2022-08-04T15:22:21;7.32;;;4.72;;
21099;SDS011;10708;50.824;4.408;2022-08-04T15:27:25;9.43;;;5.18;;
21099;SDS011;10708;50.824;4.408;2022-08-04T15:32:29;8.10;;;5.20;;
21099;SDS011;10708;50.824;4.408;2022-08-04T15:37:36;7.30;;;5.05;;
21099;SDS011;10708;50.824;4.408;2022-08-04T15:42:52;5.18;;;3.50;;
21099;SDS011;10708;50.824;4.408;2022-08-04T16:05:00;7.35;;;4.45;;
21099;SDS011;10708;50.824;4.408;2022-08-04T16:10:35;7.68;;;5.05;;
21099;SDS011;10708;50.824;4.408;2022-08-04T16:15:41;8.63;;;5.00;;
21099;SDS011;10708;50.824;4.408;2022-08-04T16:20:46;8.90;;;5.45;;
21099;SDS011;10708;50.824;4.408;2022-08-04T16:25:49;8.02;;;5.18;;
21099;SDS011;10708;50.824;4.408;2022-08-04T16:30:58;5.78;;;3.55;;
21099;SDS011;10708;50.824;4.408;2022-08-04T16:36:05;8.93;;;3.60;;
21099;SDS011;10708;50.824;4.408;2022-08-04T16:41:09;7.05;;;3.00;;
21099;SDS011;10708;50.824;4.408;2022-08-04T16:46:11;8.98;;;3.40;;
21099;SDS011;10708;50.824;4.408;2022-08-04T16:51:14;6.70;;;3.00;;
21099;SDS011;10708;50.824;4.408;2022-08-04T16:56:17;5.82;;;3.15;;
21099;SDS011;10708;50.824;4.408;2022-08-04T17:01:19;6.05;;;3.28;;
21099;SDS011;10708;50.824;4.408;2022-08-04T17:06:24;5.07;;;3.42;;
21099;SDS011;10708;50.824;4.408;2022-08-04T17:11:34;9.45;;;3.47;;
21099;SDS011;10708;50.824;4.408;2022-08-04T17:16:38;6.38;;;2.90;;
21099;SDS011;10708;50.824;4.408;2022-08-04T17:21:43;4.38;;;3.45;;
21099;SDS011;10708;50.824;4.408;2022-08-04T17:26:46;6.20;;;2.97;;
21099;SDS011;10708;50.824;4.408;2022-08-04T17:31:48;4.25;;;2.60;;
21099;SDS011;10708;50.824;4.408;2022-08-04T17:36:52;4.63;;;2.53;;
21099;SDS011;10708;50.824;4.408;2022-08-04T17:41:55;7.45;;;3.00;;
21099;SDS011;10708;50.824;4.408;2022-08-04T17:46:58;5.47;;;2.53;;
21099;SDS011;10708;50.824;4.408;2022-08-04T17:52:10;6.18;;;3.03;;
21099;SDS011;10708;50.824;4.408;2022-08-04T17:57:21;8.73;;;3.22;;
21099;SDS011;10708;50.824;4.408;2022-08-04T18:02:24;4.82;;;2.88;;
21099;SDS011;10708;50.824;4.408;2022-08-04T18:07:34;6.10;;;2.85;;
21099;SDS011;10708;50.824;4.408;2022-08-04T18:12:38;7.00;;;3.08;;
21099;SDS011;10708;50.824;4.408;2022-08-04T18:17:43;7.03;;;2.95;;
21099;SDS011;10708;50.824;4.408;2022-08-04T18:22:47;7.20;;;2.40;;
21099;SDS011;10708;50.824;4.408;2022-08-04T18:27:51;8.70;;;3.40;;
21099;SDS011;10708;50.824;4.408;2022-08-04T18:32:55;5.65;;;3.17;;
21099;SDS011;10708;50.824;4.408;2022-08-04T18:37:58;9.15;;;3.00;;
21099;SDS011;10708;50.824;4.408;2022-08-04T18:43:01;8.55;;;2.80;;
21099;SDS011;10708;50.824;4.408;2022-08-04T18:48:03;5.45;;;2.53;;
21099;SDS011;10708;50.824;4.408;2022-08-04T18:53:07;6.07;;;2.80;;
21099;SDS011;10708;50.824;4.408;2022-08-04T18:58:10;7.20;;;2.95;;
21099;SDS011;10708;50.824;4.408;2022-08-04T19:03:12;5.20;;;2.85;;
21099;SDS011;10708;50.824;4.408;2022-08-04T19:08:15;8.00;;;2.80;;
21099;SDS011;10708;50.824;4.408;2022-08-04T19:13:18;6.55;;;3.30;;
21099;SDS011;10708;50.824;4.408;2022-08-04T19:18:20;6.28;;;3.40;;
21099;SDS011;10708;50.824;4.408;2022-08-04T19:23:23;8.52;;;3.78;;
21099;SDS011;10708;50.824;4.408;2022-08-04T19:28:26;9.98;;;4.32;;
21099;SDS011;10708;50.824;4.408;2022-08-04T19:33:29;10.80;;;4.18;;
21099;SDS011;10708;50.824;4.408;2022-08-04T19:38:32;10.98;;;4.28;;
21099;SDS011;10708;50.824;4.408;2022-08-04T19:43:35;8.57;;;4.60;;
21099;SDS011;10708;50.824;4.408;2022-08-04T19:48:38;12.50;;;5.07;;
21099;SDS011;10708;50.824;4.408;2022-08-04T19:53:41;10.52;;;4.90;;
21099;SDS011;10708;50.824;4.408;2022-08-04T19:58:44;7.88;;;4.75;;
21099;SDS011;10708;50.824;4.408;2022-08-04T20:03:46;8.85;;;4.40;;
21099;SDS011;10708;50.824;4.408;2022-08-04T20:08:50;10.02;;;4.63;;
21099;SDS011;10708;50.824;4.408;2022-08-04T20:13:52;12.68;;;5.57;;
21099;SDS011;10708;50.824;4.408;2022-08-04T20:18:54;13.20;;;5.57;;
21099;SDS011;10708;50.824;4.408;2022-08-04T20:23:58;6.70;;;5.03;;
21099;SDS011;10708;50.824;4.408;2022-08-04T20:29:00;8.82;;;5.32;;
21099;SDS011;10708;50.824;4.408;2022-08-04T20:34:03;10.50;;;4.95;;
21099;SDS011;10708;50.824;4.408;2022-08-04T20:39:07;10.10;;;4.95;;
21099;SDS011;10708;50.824;4.408;2022-08-04T20:44:10;8.52;;;4.90;;
21099;SDS011;10708;50.824;4.408;2022-08-04T20:49:12;13.32;;;5.47;;
21099;SDS011;10708;50.824;4.408;2022-08-04T20:54:16;6.65;;;5.30;;
21099;SDS011;10708;50.824;4.408;2022-08-04T20:59:18;11.07;;;5.65;;
21099;SDS011;10708;50.824;4.408;2022-08-04T21:04:20;12.55;;;6.35;;
21099;SDS011;10708;50.824;4.408;2022-08-04T21:09:33;13.13;;;6.43;;
21099;SDS011;10708;50.824;4.408;2022-08-04T21:14:36;13.40;;;7.22;;
21099;SDS011;10708;50.824;4.408;2022-08-04T21:19:38;11.18;;;6.78;;
21099;SDS011;10708;50.824;4.408;2022-08-04T21:24:42;11.48;;;6.40;;
21099;SDS011;10708;50.824;4.408;2022-08-04T21:29:45;11.15;;;5.85;;
21099;SDS011;10708;50.824;4.408;2022-08-04T21:34:47;11.13;;;6.32;;
21099;SDS011;10708;50.824;4.408;2022-08-04T21:39:51;10.95;;;5.97;;
21099;SDS011;10708;50.824;4.408;2022-08-04T21:44:53;9.57;;;6.40;;
21099;SDS011;10708;50.824;4.408;2022-08-04T21:49:55;14.30;;;6.70;;
21099;SDS011;10708;50.824;4.408;2022-08-04T21:54:59;11.32;;;6.78;;
21099;SDS011;10708;50.824;4.408;2022-08-04T22:00:01;9.57;;;6.18;;
21099;SDS011;10708;50.824;4.408;2022-08-04T22:05:04;11.63;;;6.50;;
21099;SDS011;10708;50.824;4.408;2022-08-04T22:10:08;12.88;;;6.30;;
21099;SDS011;10708;50.824;4.408;2022-08-04T22:15:10;9.18;;;6.03;;
21099;SDS011;10708;50.824;4.408;2022-08-04T22:20:13;11.23;;;6.60;;
21099;SDS011;10708;50.824;4.408;2022-08-04T22:25:17;13.30;;;5.90;;
21099;SDS011;10708;50.824;4.408;2022-08-04T22:30:19;8.82;;;6.03;;
21099;SDS011;10708;50.824;4.408;2022-08-04T22:35:22;8.77;;;5.82;;
21099;SDS011;10708;50.824;4.408;2022-08-04T22:40:25;9.43;;;5.80;;
21099;SDS011;10708;50.824;4.408;2022-08-04T22:45:28;8.75;;;5.88;;
21099;SDS011;10708;50.824;4.408;2022-08-04T22:50:30;11.80;;;7.35;;
21099;SDS011;10708;50.824;4.408;2022-08-04T22:55:34;18.65;;;9.25;;
21099;SDS011;10708;50.824;4.408;2022-08-04T23:00:37;27.75;;;14.00;;
21099;SDS011;10708;50.824;4.408;2022-08-04T23:05:39;24.50;;;14.32;;
21099;SDS011;10708;50.824;4.408;2022-08-04T23:10:42;26.13;;;15.13;;
21099;SDS011;10708;50.824;4.408;2022-08-04T23:15:45;26.52;;;15.07;;
21099;SDS011;10708;50.824;4.408;2022-08-04T23:20:47;20.27;;;11.85;;
21099;SDS011;10708;50.824;4.408;2022-08-04T23:25:51;21.05;;;11.38;;
21099;SDS011;10708;50.824;4.408;2022-08-04T23:30:54;20.83;;;11.52;;
21099;SDS011;10708;50.824;4.408;2022-08-04T23:35:56;20.65;;;11.98;;
21099;SDS011;10708;50.824;4.408;2022-08-04T23:41:04;14.98;;;9.93;;
21099;SDS011;10708;50.824;4.408;2022-08-04T23:46:07;15.40;;;9.55;;
21099;SDS011;10708;50.824;4.408;2022-08-04T23:51:10;11.60;;;7.90;;
21099;SDS011;10708;50.824;4.408;2022-08-04T23:56:15;8.77;;;5.82;;
